Prince Madog — ZNLJ5 — position and weather

sailwx.info

Track history (hours):
 
Tides and Currents Weather Stations Pressure Air Temp Water Temp Dewpoint Dewpoint Depression Visibility Wind Speed Wind Dir Waves Ship Positions

Oceanographic research ship Prince Madog (UK)

Detailed information on ship capabilities available from University of Delaware's Ocean Information Center.

Last reported at 2017-Jun-19 17:30 UTC. Time now 2017-Jun-26 19:07 UTC.
Position N 53°14' W 004°09'.

Length 35 m; draft 3.9 m.

Type: Ship. MMSI: 235234000.

Date/timePositionNaut miles runAvg speedWind from/ knotsBaromVisibWave heightAir tempDewpointWater temp
2017-Jun-19 17:30N 53°14' W 004°09'4 8.8
2017-Jun-19 17:00N 53°17' W 004°04'3 5.6
2017-Jun-19 16:30N 53°20' W 004°04'3 5.4
2017-Jun-19 16:00N 53°21' W 004°08'3 6.8
2017-Jun-19 15:30N 53°23' W 004°12'611.7
2017-Jun-19 15:00N 53°26' W 004°21'611.9
2017-Jun-19 14:31N 53°26' W 004°31'6 0.9
2017-Jun-19 07:12N 53°26' W 004°20'710.9
2017-Jun-19 06:35N 53°23' W 004°10'110.2
2017-Jun-19 06:30N 53°22' W 004°09'510.0
2017-Jun-19 06:00N 53°19' W 004°03'4 7.7
2017-Jun-19 05:29N 53°16' W 004°05'  
2017-Jun-15 06:46N 53°14' W 004°09'2 8.0
2017-Jun-15 06:29N 53°15' W 004°06'3 5.5
2017-Jun-15 06:00N 53°17' W 004°03'2 0.1
2017-Jun-14 17:32N 53°19' W 004°04'8 8.5
2017-Jun-14 16:35N 53°27' W 004°05'3 9.0
2017-Jun-14 16:12N 53°31' W 004°05'2 7.8
2017-Jun-14 15:53N 53°33' W 004°06'1 2.6
2017-Jun-14 15:30N 53°34' W 004°07'0 0.4
2017-Jun-14 15:00N 53°34' W 004°07'5 3.7
2017-Jun-14 13:42N 53°34' W 003°59'1 5.1
2017-Jun-14 13:25N 53°34' W 003°56'1 2.4
2017-Jun-14 13:00N 53°34' W 003°55'0 0.5
2017-Jun-14 12:30N 53°34' W 003°55'3 5.2
2017-Jun-14 12:00N 53°34' W 003°51'3 5.5
2017-Jun-14 11:30N 53°35' W 003°46'0 0.1
2017-Jun-14 11:00N 53°35' W 003°46'0 0.7
2017-Jun-14 10:30N 53°35' W 003°46'5 9.6
2017-Jun-14 10:00N 53°31' W 003°50'3 7.0
2017-Jun-14 09:30N 53°28' W 003°53'0 0.2
2017-Jun-14 09:00N 53°28' W 003°53'1 1.4
2017-Jun-14 08:30N 53°28' W 003°51'3 6.3
2017-Jun-14 08:00N 53°26' W 003°56'1 2.1
2017-Jun-14 07:29N 53°26' W 003°54'0 1.0
2017-Jun-14 07:00N 53°26' W 003°55'2 4.6
2017-Jun-14 06:30N 53°24' W 003°53'4 8.9
2017-Jun-14 06:00N 53°21' W 003°49'0 0.9
2017-Jun-14 05:30N 53°20' W 003°49'0 0.0
2017-Jun-14 05:00N 53°20' W 003°49'0 0.0
2017-Jun-14 04:27N 53°20' W 003°49'0 0.0
2017-Jun-14 04:00N 53°20' W 003°49'0 0.0
2017-Jun-14 03:30N 53°20' W 003°49'0 0.0
2017-Jun-14 02:57N 53°20' W 003°49'0 0.0
2017-Jun-14 02:30N 53°20' W 003°49'0 0.0
2017-Jun-14 02:00N 53°20' W 003°49'0 0.0
2017-Jun-14 01:30N 53°20' W 003°49'0 0.1
2017-Jun-14 01:00N 53°20' W 003°48'0 0.0
2017-Jun-14 00:12N 53°20' W 003°48'0 0.0
2017-Jun-14 00:00N 53°20' W 003°48'0 0.0
2017-Jun-13 23:27N 53°20' W 003°48'0 0.0
2017-Jun-13 22:45N 53°20' W 003°48'0 0.0
2017-Jun-13 22:21N 53°20' W 003°48'0 0.0
2017-Jun-13 21:57N 53°20' W 003°48'0 0.0
2017-Jun-13 21:24N 53°20' W 003°48'0 0.0
2017-Jun-13 20:45N 53°20' W 003°48'0 0.0
2017-Jun-13 20:30N 53°20' W 003°48'0 0.0
2017-Jun-13 19:54N 53°20' W 003°48'0 0.0
2017-Jun-13 19:24N 53°20' W 003°48'0 0.0
2017-Jun-13 18:57N 53°20' W 003°48'0 0.0
2017-Jun-13 18:30N 53°20' W 003°48'0 0.0
2017-Jun-13 18:00N 53°20' W 003°48'3 6.4
2017-Jun-13 17:30N 53°23' W 003°50'5 9.5
2017-Jun-13 17:00N 53°27' W 003°44'5 9.3
2017-Jun-13 16:30N 53°31' W 003°40'2 4.6
2017-Jun-13 16:00N 53°32' W 003°37'0 0.4
2017-Jun-13 15:30N 53°32' W 003°37'0 0.7
2017-Jun-13 15:00N 53°32' W 003°37'2 2.5
2017-Jun-13 14:00N 53°31' W 003°41'1 1.1
2017-Jun-13 13:30N 53°31' W 003°40'4 7.8
2017-Jun-13 13:00N 53°32' W 003°46'0 0.6
2017-Jun-13 12:30N 53°32' W 003°45'0 0.6
2017-Jun-13 12:00N 53°32' W 003°46'1 1.0
2017-Jun-13 11:30N 53°32' W 003°45'5 9.8
2017-Jun-13 11:00N 53°27' W 003°48'510.4
2017-Jun-13 10:30N 53°23' W 003°54'510.1
2017-Jun-13 10:00N 53°20' W 004°00'4 7.6
2017-Jun-13 09:30N 53°17' W 004°04'4 0.1
2017-Jun-11 10:10N 53°14' W 004°09'3 6.3
2017-Jun-11 09:44N 53°16' W 004°05'3 7.7
2017-Jun-11 09:23N 53°18' W 004°03'24 1.1
2017-Jun-10 10:53N 53°06' W 004°38'3 8.2
2017-Jun-10 10:27N 53°03' W 004°37'1 1.1
2017-Jun-10 09:42N 53°02' W 004°36'1 1.3
2017-Jun-10 08:46N 53°01' W 004°35'  
Track history (hours):
 
Tides and Currents Weather Stations Pressure Air Temp Water Temp Dewpoint Dewpoint Depression Visibility Wind Speed Wind Dir Waves Ship Positions

Oceanographic research ship Prince Madog (UK)

Detailed information on ship capabilities available from University of Delaware's Ocean Information Center.

Last reported at 2017-Jun-19 17:30 UTC. Time now 2017-Jun-26 19:07 UTC.
Position N 53°14' W 004°09'.

Length 35 m; draft 3.9 m.

Type: Ship. MMSI: 235234000.

Date/timePositionNaut miles runAvg speedWind from/ knotsBaromVisibWave heightAir tempDewpointWater temp
2017-Jun-19 17:30N 53°14' W 004°09'4 8.8
2017-Jun-19 17:00N 53°17' W 004°04'3 5.6
2017-Jun-19 16:30N 53°20' W 004°04'3 5.4
2017-Jun-19 16:00N 53°21' W 004°08'3 6.8
2017-Jun-19 15:30N 53°23' W 004°12'611.7
2017-Jun-19 15:00N 53°26' W 004°21'611.9
2017-Jun-19 14:31N 53°26' W 004°31'6 0.9
2017-Jun-19 07:12N 53°26' W 004°20'710.9
2017-Jun-19 06:35N 53°23' W 004°10'110.2
2017-Jun-19 06:30N 53°22' W 004°09'510.0
2017-Jun-19 06:00N 53°19' W 004°03'4 7.7
2017-Jun-19 05:29N 53°16' W 004°05'  
2017-Jun-15 06:46N 53°14' W 004°09'2 8.0
2017-Jun-15 06:29N 53°15' W 004°06'3 5.5
2017-Jun-15 06:00N 53°17' W 004°03'2 0.1
2017-Jun-14 17:32N 53°19' W 004°04'8 8.5
2017-Jun-14 16:35N 53°27' W 004°05'3 9.0
2017-Jun-14 16:12N 53°31' W 004°05'2 7.8
2017-Jun-14 15:53N 53°33' W 004°06'1 2.6
2017-Jun-14 15:30N 53°34' W 004°07'0 0.4
2017-Jun-14 15:00N 53°34' W 004°07'5 3.7
2017-Jun-14 13:42N 53°34' W 003°59'1 5.1
2017-Jun-14 13:25N 53°34' W 003°56'1 2.4
2017-Jun-14 13:00N 53°34' W 003°55'0 0.5
2017-Jun-14 12:30N 53°34' W 003°55'3 5.2
2017-Jun-14 12:00N 53°34' W 003°51'3 5.5
2017-Jun-14 11:30N 53°35' W 003°46'0 0.1
2017-Jun-14 11:00N 53°35' W 003°46'0 0.7
2017-Jun-14 10:30N 53°35' W 003°46'5 9.6
2017-Jun-14 10:00N 53°31' W 003°50'3 7.0
2017-Jun-14 09:30N 53°28' W 003°53'0 0.2
2017-Jun-14 09:00N 53°28' W 003°53'1 1.4
2017-Jun-14 08:30N 53°28' W 003°51'3 6.3
2017-Jun-14 08:00N 53°26' W 003°56'1 2.1
2017-Jun-14 07:29N 53°26' W 003°54'0 1.0
2017-Jun-14 07:00N 53°26' W 003°55'2 4.6
2017-Jun-14 06:30N 53°24' W 003°53'4 8.9
2017-Jun-14 06:00N 53°21' W 003°49'0 0.9
2017-Jun-14 05:30N 53°20' W 003°49'0 0.0
2017-Jun-14 05:00N 53°20' W 003°49'0 0.0
2017-Jun-14 04:27N 53°20' W 003°49'0 0.0
2017-Jun-14 04:00N 53°20' W 003°49'0 0.0
2017-Jun-14 03:30N 53°20' W 003°49'0 0.0
2017-Jun-14 02:57N 53°20' W 003°49'0 0.0
2017-Jun-14 02:30N 53°20' W 003°49'0 0.0
2017-Jun-14 02:00N 53°20' W 003°49'0 0.0
2017-Jun-14 01:30N 53°20' W 003°49'0 0.1
2017-Jun-14 01:00N 53°20' W 003°48'0 0.0
2017-Jun-14 00:12N 53°20' W 003°48'0 0.0
2017-Jun-14 00:00N 53°20' W 003°48'0 0.0
2017-Jun-13 23:27N 53°20' W 003°48'0 0.0
2017-Jun-13 22:45N 53°20' W 003°48'0 0.0
2017-Jun-13 22:21N 53°20' W 003°48'0 0.0
2017-Jun-13 21:57N 53°20' W 003°48'0 0.0
2017-Jun-13 21:24N 53°20' W 003°48'0 0.0
2017-Jun-13 20:45N 53°20' W 003°48'0 0.0
2017-Jun-13 20:30N 53°20' W 003°48'0 0.0
2017-Jun-13 19:54N 53°20' W 003°48'0 0.0
2017-Jun-13 19:24N 53°20' W 003°48'0 0.0
2017-Jun-13 18:57N 53°20' W 003°48'0 0.0
2017-Jun-13 18:30N 53°20' W 003°48'0 0.0
2017-Jun-13 18:00N 53°20' W 003°48'3 6.4
2017-Jun-13 17:30N 53°23' W 003°50'5 9.5
2017-Jun-13 17:00N 53°27' W 003°44'5 9.3
2017-Jun-13 16:30N 53°31' W 003°40'2 4.6
2017-Jun-13 16:00N 53°32' W 003°37'0 0.4
2017-Jun-13 15:30N 53°32' W 003°37'0 0.7
2017-Jun-13 15:00N 53°32' W 003°37'2 2.5
2017-Jun-13 14:00N 53°31' W 003°41'1 1.1
2017-Jun-13 13:30N 53°31' W 003°40'4 7.8
2017-Jun-13 13:00N 53°32' W 003°46'0 0.6
2017-Jun-13 12:30N 53°32' W 003°45'0 0.6
2017-Jun-13 12:00N 53°32' W 003°46'1 1.0
2017-Jun-13 11:30N 53°32' W 003°45'5 9.8
2017-Jun-13 11:00N 53°27' W 003°48'510.4
2017-Jun-13 10:30N 53°23' W 003°54'510.1
2017-Jun-13 10:00N 53°20' W 004°00'4 7.6
2017-Jun-13 09:30N 53°17' W 004°04'4 0.1
2017-Jun-11 10:10N 53°14' W 004°09'3 6.3
2017-Jun-11 09:44N 53°16' W 004°05'3 7.7
2017-Jun-11 09:23N 53°18' W 004°03'24 1.1
2017-Jun-10 10:53N 53°06' W 004°38'3 8.2
2017-Jun-10 10:27N 53°03' W 004°37'1 1.1
2017-Jun-10 09:42N 53°02' W 004°36'1 1.3
2017-Jun-10 08:46N 53°01' W 004°35'  

Dump ship's entire track history